Time;durP1;ratioP1;P1;durP2;ratioP2;P2;SDS_P1;SDS_P2;PMS_P1;PMS_P2;Temp;Humidity;BMP_temperature;BMP_pressure;BME280_temperature;BME280_humidity;BME280_pressure;Samples;Min_cycle;Max_cycle;Signal;HPM_P1;HPM_P2
2023/11/02 00:00:44;;;;;;;15.50;8.23;;;4.30;99.90;;;;;;4128077;28;20617;-61
2023/11/02 00:02:45;;;;;;;18.63;9.30;;;4.10;99.90;;;;;;4127318;28;20264;-60
2023/11/02 00:04:47;;;;;;;16.87;10.20;;;4.00;99.90;;;;;;4129199;28;20276;-60
2023/11/02 00:06:49;;;;;;;18.10;9.50;;;3.90;99.90;;;;;;4127267;28;20661;-61
2023/11/02 00:09:22;;;;;;;17.67;10.37;;;3.90;99.90;;;;;;4128884;28;20331;-61
2023/11/02 00:11:50;;;;;;;16.67;9.20;;;3.80;99.90;;;;;;4127373;28;20446;-60
2023/11/02 00:13:51;;;;;;;20.93;11.93;;;3.80;99.90;;;;;;4128163;28;20547;-61
2023/11/02 00:15:53;;;;;;;25.07;12.13;;;3.80;99.90;;;;;;4127208;28;20327;-62
2023/11/02 00:18:01;;;;;;;20.43;12.57;;;3.80;99.90;;;;;;4128330;28;20280;-61
2023/11/02 00:20:07;;;;;;;22.43;12.20;;;3.80;99.90;;;;;;4127249;28;20272;-60
2023/11/02 00:22:10;;;;;;;21.30;12.73;;;3.80;99.90;;;;;;4128307;28;20280;-57
2023/11/02 00:24:13;;;;;;;23.67;13.63;;;3.80;99.90;;;;;;4127363;28;20292;-60
2023/11/02 00:26:18;;;;;;;21.70;13.43;;;3.90;99.90;;;;;;4127770;28;20288;-60
2023/11/02 00:28:21;;;;;;;23.20;12.83;;;3.90;99.90;;;;;;4127541;28;20268;-59
2023/11/02 00:30:22;;;;;;;19.60;12.67;;;3.90;99.90;;;;;;4125853;28;20292;-60
2023/11/02 00:32:24;;;;;;;24.53;13.23;;;3.90;99.90;;;;;;4126808;28;20330;-60
2023/11/02 00:34:28;;;;;;;22.13;12.70;;;3.90;99.90;;;;;;4129131;28;20256;-60
2023/11/02 00:36:31;;;;;;;20.07;12.57;;;4.00;99.90;;;;;;4128156;28;20350;-61
2023/11/02 00:38:32;;;;;;;21.30;13.10;;;4.00;99.90;;;;;;4131347;28;20330;-61
2023/11/02 00:40:33;;;;;;;21.87;12.20;;;4.10;99.90;;;;;;4129755;28;20327;-61
2023/11/02 00:42:34;;;;;;;21.63;12.77;;;4.10;99.90;;;;;;4130588;28;20089;-61
2023/11/02 00:44:37;;;;;;;22.40;12.17;;;4.20;99.90;;;;;;4130854;28;20300;-60
2023/11/02 00:46:38;;;;;;;26.50;13.23;;;4.10;99.90;;;;;;4130704;28;20318;-62
2023/11/02 00:48:39;;;;;;;21.50;12.73;;;4.10;99.90;;;;;;4130995;28;20279;-61
2023/11/02 00:50:56;;;;;;;22.03;12.90;;;4.00;99.90;;;;;;4130519;28;20272;-60
2023/11/02 00:52:57;;;;;;;23.77;12.23;;;4.00;99.90;;;;;;4130905;28;20252;-61
2023/11/02 00:54:59;;;;;;;22.47;12.00;;;4.00;99.90;;;;;;4129967;28;20335;-61
2023/11/02 00:57:04;;;;;;;21.10;11.97;;;4.00;99.90;;;;;;4131250;28;20318;-61
2023/11/02 00:59:05;;;;;;;26.03;12.83;;;4.00;99.90;;;;;;4130049;28;20753;-58
2023/11/02 01:01:12;;;;;;;22.00;11.80;;;3.90;99.90;;;;;;4131120;28;20288;-61
2023/11/02 01:03:13;;;;;;;22.77;13.37;;;4.00;99.90;;;;;;4129998;28;20304;-61
2023/11/02 01:05:26;;;;;;;27.17;13.57;;;3.90;99.90;;;;;;4131668;28;20779;-60
2023/11/02 01:07:28;;;;;;;24.63;13.27;;;3.90;99.90;;;;;;4129996;28;20276;-60
2023/11/02 01:09:50;;;;;;;24.17;13.07;;;3.90;99.90;;;;;;4131337;28;20276;-61
2023/11/02 01:11:51;;;;;;;22.90;11.73;;;3.90;99.90;;;;;;4130162;28;20264;-60
2023/11/02 01:13:53;;;;;;;21.70;13.83;;;3.90;99.90;;;;;;4131034;28;20331;-61
2023/11/02 01:16:09;;;;;;;28.50;14.27;;;3.90;99.90;;;;;;4129522;28;20283;-60
2023/11/02 01:18:12;;;;;;;24.87;13.60;;;3.80;99.90;;;;;;4130854;28;20342;-60
2023/11/02 01:20:39;;;;;;;26.37;13.40;;;3.80;99.90;;;;;;4129786;28;20315;-60
2023/11/02 01:22:52;;;;;;;26.90;14.33;;;3.80;99.90;;;;;;4130536;28;20327;-61
2023/11/02 01:24:56;;;;;;;23.03;13.03;;;3.70;99.90;;;;;;4129735;28;20350;-59
2023/11/02 01:27:00;;;;;;;27.20;13.30;;;3.70;99.90;;;;;;4130640;28;20312;-61
2023/11/02 01:29:01;;;;;;;23.73;13.37;;;3.70;99.90;;;;;;4129595;28;20342;-61
2023/11/02 01:31:14;;;;;;;21.53;12.27;;;3.70;99.90;;;;;;4130609;28;20756;-61
2023/11/02 01:33:34;;;;;;;21.80;12.77;;;3.70;99.90;;;;;;4129753;28;20268;-61
2023/11/02 01:35:43;;;;;;;21.63;13.10;;;3.80;99.90;;;;;;4131012;28;20315;-59
2023/11/02 01:37:47;;;;;;;21.87;14.27;;;3.80;99.90;;;;;;4129656;28;20268;-59
2023/11/02 01:40:08;;;;;;;25.10;13.30;;;3.80;99.90;;;;;;4130274;28;20276;-61
2023/11/02 01:42:14;;;;;;;23.40;14.57;;;3.70;99.90;;;;;;4129724;28;20312;-60
2023/11/02 01:44:18;;;;;;;23.57;13.43;;;3.70;99.90;;;;;;4130564;28;20291;-62
2023/11/02 01:46:24;;;;;;;22.03;13.73;;;3.60;99.90;;;;;;4128841;28;20351;-59
2023/11/02 01:48:35;;;;;;;26.80;14.33;;;3.50;99.90;;;;;;4113095;28;20355;-60
2023/11/02 01:50:46;;;;;;;25.40;13.33;;;3.40;99.90;;;;;;4122022;28;20292;-60
2023/11/02 01:53:00;;;;;;;22.70;12.63;;;3.40;99.90;;;;;;4129806;28;20563;-60
2023/11/02 01:55:07;;;;;;;24.73;13.97;;;3.30;99.90;;;;;;4129176;28;20026;-60
2023/11/02 01:57:15;;;;;;;20.10;12.87;;;3.30;99.90;;;;;;4129100;28;20700;-59
2023/11/02 01:59:58;;;;;;;22.33;13.10;;;3.30;99.90;;;;;;4129185;28;20318;-60
2023/11/02 02:02:14;;;;;;;22.30;12.53;;;3.30;99.90;;;;;;4128802;28;20284;-61
2023/11/02 02:04:47;;;;;;;21.20;12.53;;;3.20;99.90;;;;;;4129548;28;20339;-60
2023/11/02 02:07:18;;;;;;;19.60;12.50;;;3.20;99.90;;;;;;4128404;28;20350;-61
2023/11/02 02:09:32;;;;;;;23.23;12.77;;;3.30;99.90;;;;;;4129951;28;20279;-60
2023/11/02 02:11:48;;;;;;;25.27;13.37;;;3.30;99.90;;;;;;4128760;28;20264;-61
2023/11/02 02:14:26;;;;;;;25.27;13.57;;;3.40;99.90;;;;;;4129850;28;20284;-61
2023/11/02 02:16:39;;;;;;;22.93;12.47;;;3.40;99.90;;;;;;4124915;28;20287;-61
2023/11/02 02:18:51;;;;;;;28.47;13.73;;;3.40;99.90;;;;;;4129203;28;20768;-61
2023/11/02 02:20:58;;;;;;;29.50;15.23;;;3.30;99.90;;;;;;4128676;28;20264;-60
2023/11/02 02:23:25;;;;;;;22.67;13.27;;;3.30;99.90;;;;;;4129643;28;20696;-61
2023/11/02 02:26:03;;;;;;;22.93;12.70;;;3.20;99.90;;;;;;4128753;28;20852;-60
2023/11/02 02:28:39;;;;;;;22.63;11.70;;;3.20;99.90;;;;;;4129585;28;20268;-60
2023/11/02 02:31:12;;;;;;;24.67;13.43;;;3.20;99.90;;;;;;4126433;28;20272;-61
2023/11/02 02:33:49;;;;;;;23.70;12.47;;;3.20;99.90;;;;;;4128514;28;20342;-60
2023/11/02 02:35:58;;;;;;;27.57;13.97;;;3.20;99.90;;;;;;4128522;28;20327;-61
2023/11/02 02:38:17;;;;;;;23.83;12.23;;;3.20;99.90;;;;;;4127717;28;20614;-61
2023/11/02 02:40:37;;;;;;;19.87;12.37;;;3.20;99.90;;;;;;4127944;28;20346;-61
2023/11/02 02:42:41;;;;;;;25.80;12.93;;;3.10;99.90;;;;;;4125332;28;20355;-61
2023/11/02 02:44:45;;;;;;;21.50;12.07;;;3.10;99.90;;;;;;4129257;28;20042;-61
2023/11/02 02:46:47;;;;;;;25.67;13.27;;;3.10;99.90;;;;;;4126951;28;20279;-58
2023/11/02 02:48:49;;;;;;;22.93;12.10;;;3.00;99.90;;;;;;4129419;28;20288;-60
2023/11/02 02:50:57;;;;;;;24.60;12.80;;;3.00;99.90;;;;;;4128503;28;20330;-61
2023/11/02 02:53:01;;;;;;;23.63;13.13;;;3.00;99.90;;;;;;4129371;28;20280;-61
2023/11/02 02:55:03;;;;;;;30.20;12.67;;;3.00;99.90;;;;;;4128172;28;20280;-57
2023/11/02 02:57:09;;;;;;;28.80;13.43;;;3.00;99.90;;;;;;4128856;28;20311;-61
2023/11/02 02:59:16;;;;;;;31.87;13.77;;;2.90;99.90;;;;;;4128265;28;20302;-58
2023/11/02 03:01:19;;;;;;;27.37;14.17;;;2.90;99.90;;;;;;4128386;28;20276;-60
2023/11/02 03:03:23;;;;;;;28.47;13.80;;;2.80;99.90;;;;;;4127855;28;20276;-62
2023/11/02 03:05:28;;;;;;;24.17;13.03;;;2.90;99.90;;;;;;4129268;28;20326;-61
2023/11/02 03:07:31;;;;;;;24.70;13.80;;;2.80;99.90;;;;;;4127265;28;20822;-60
2023/11/02 03:09:36;;;;;;;20.17;12.20;;;2.80;99.90;;;;;;4128589;28;20672;-61
2023/11/02 03:11:38;;;;;;;18.13;11.93;;;2.80;99.90;;;;;;4128242;28;20302;-60
2023/11/02 03:13:41;;;;;;;19.43;11.47;;;2.80;99.90;;;;;;4127866;28;20272;-62
2023/11/02 03:15:46;;;;;;;17.83;10.17;;;2.80;99.90;;;;;;4128307;28;20586;-61
2023/11/02 03:18:09;;;;;;;18.60;11.00;;;2.80;99.90;;;;;;4126884;28;20287;-61
2023/11/02 03:20:12;;;;;;;23.10;11.10;;;2.70;99.90;;;;;;4128147;28;20299;-61
2023/11/02 03:22:21;;;;;;;18.90;10.67;;;2.70;99.90;;;;;;4128354;28;20284;-61
2023/11/02 03:24:37;;;;;;;19.37;11.30;;;2.70;99.90;;;;;;4128234;28;20299;-61
2023/11/02 03:26:47;;;;;;;19.53;11.00;;;2.70;99.90;;;;;;4128383;28;20491;-61
2023/11/02 03:29:23;;;;;;;20.20;10.63;;;2.70;99.90;;;;;;4128298;28;20260;-60
2023/11/02 03:31:42;;;;;;;20.13;10.80;;;2.70;99.90;;;;;;4126848;28;20284;-60
2023/11/02 03:34:07;;;;;;;15.00;10.47;;;2.80;99.90;;;;;;4127934;28;20295;-60
2023/11/02 03:36:20;;;;;;;16.97;10.13;;;2.80;99.90;;;;;;4128665;28;20280;-60
2023/11/02 03:38:33;;;;;;;19.70;10.77;;;3.00;99.90;;;;;;4127178;28;20275;-61
2023/11/02 03:40:43;;;;;;;18.70;10.23;;;3.10;99.90;;;;;;4128777;28;20279;-60
2023/11/02 03:43:06;;;;;;;19.60;10.95;;;3.20;99.90;;;;;;4127857;28;20787;-60
2023/11/02 03:45:42;;;;;;;17.93;10.87;;;3.20;99.90;;;;;;4129027;28;20046;-62
2023/11/02 03:47:56;;;;;;;19.13;11.33;;;3.30;99.90;;;;;;4126297;28;20292;-61
2023/11/02 03:49:57;;;;;;;18.97;11.20;;;3.30;99.90;;;;;;4128523;28;20606;-61
2023/11/02 03:52:24;;;;;;;23.17;11.97;;;3.40;99.90;;;;;;4127760;28;20272;-62
2023/11/02 03:54:31;;;;;;;19.87;11.80;;;3.50;99.90;;;;;;4128285;28;20314;-62
2023/11/02 03:56:38;;;;;;;21.00;11.90;;;3.60;99.90;;;;;;4127823;28;20272;-61
2023/11/02 03:59:06;;;;;;;18.63;11.00;;;3.60;99.90;;;;;;4127443;28;20276;-60
2023/11/02 04:01:41;;;;;;;20.77;12.13;;;3.60;99.90;;;;;;4127610;28;20701;-61
2023/11/02 04:03:48;;;;;;;22.87;11.77;;;3.80;99.90;;;;;;4126789;28;20321;-61
2023/11/02 04:05:54;;;;;;;21.63;11.43;;;3.90;99.90;;;;;;4128148;28;20272;-61
2023/11/02 04:08:14;;;;;;;21.83;11.17;;;3.90;99.90;;;;;;4128322;28;20318;-61
2023/11/02 04:10:22;;;;;;;18.77;12.00;;;4.00;99.90;;;;;;4128514;28;20264;-61
2023/11/02 04:12:29;;;;;;;21.57;11.90;;;4.00;99.90;;;;;;4131182;28;20330;-61
2023/11/02 04:14:33;;;;;;;20.10;11.70;;;4.00;99.90;;;;;;4131440;28;20287;-62
2023/11/02 04:16:34;;;;;;;21.37;11.70;;;4.10;99.90;;;;;;4130181;28;20858;-61
2023/11/02 04:18:38;;;;;;;18.47;10.97;;;4.00;99.90;;;;;;4130793;28;20342;-60
2023/11/02 04:20:39;;;;;;;19.97;12.03;;;4.00;99.90;;;;;;4131269;28;20594;-60
2023/11/02 04:22:40;;;;;;;19.10;11.67;;;4.00;99.90;;;;;;4130286;28;20280;-62
2023/11/02 04:24:42;;;;;;;19.73;11.97;;;4.00;99.90;;;;;;4131384;28;20296;-62
2023/11/02 04:26:43;;;;;;;19.63;11.77;;;4.00;99.90;;;;;;4130387;28;20323;-61
2023/11/02 04:28:44;;;;;;;21.10;11.83;;;4.00;99.90;;;;;;4131359;28;20280;-61
2023/11/02 04:30:47;;;;;;;19.50;12.17;;;4.00;99.90;;;;;;4130152;28;20353;-61
2023/11/02 04:32:48;;;;;;;18.50;11.27;;;4.10;99.90;;;;;;4131844;28;20633;-61
2023/11/02 04:34:49;;;;;;;24.63;12.27;;;4.20;99.90;;;;;;4130235;28;20811;-61
2023/11/02 04:36:50;;;;;;;22.47;12.23;;;4.30;99.90;;;;;;4131436;28;20323;-61
2023/11/02 04:38:52;;;;;;;22.67;14.00;;;4.30;99.90;;;;;;4129859;28;20370;-62
2023/11/02 04:40:54;;;;;;;21.53;13.10;;;4.40;99.90;;;;;;4131379;28;20330;-61
2023/11/02 04:42:55;;;;;;;21.47;13.20;;;4.40;99.90;;;;;;4130011;28;20311;-60
2023/11/02 04:44:56;;;;;;;23.60;13.57;;;4.40;99.90;;;;;;4115067;28;20288;-61
2023/11/02 04:46:57;;;;;;;23.63;13.17;;;4.50;99.90;;;;;;4114321;28;20323;-61
2023/11/02 04:48:58;;;;;;;21.80;13.30;;;4.50;99.90;;;;;;4114861;28;20681;-61
2023/11/02 04:51:00;;;;;;;24.43;12.87;;;4.50;99.90;;;;;;4115081;28;20285;-61
2023/11/02 04:53:01;;;;;;;25.03;12.50;;;4.50;99.90;;;;;;4120197;28;20346;-60
2023/11/02 04:55:02;;;;;;;17.53;11.57;;;4.50;99.90;;;;;;4130585;28;20764;-60
2023/11/02 04:57:04;;;;;;;23.03;12.87;;;4.50;99.90;;;;;;4129411;28;20132;-60
2023/11/02 04:59:05;;;;;;;18.20;12.13;;;4.50;99.90;;;;;;4130317;28;20276;-62
2023/11/02 05:01:06;;;;;;;22.30;11.77;;;4.50;99.90;;;;;;4128506;28;20736;-60
2023/11/02 05:03:08;;;;;;;18.13;10.90;;;4.50;99.90;;;;;;4130922;28;20284;-62
2023/11/02 05:05:09;;;;;;;22.23;13.43;;;4.50;99.90;;;;;;4129792;28;20346;-61
2023/11/02 05:07:10;;;;;;;21.60;12.00;;;4.60;99.90;;;;;;4129503;28;20279;-61
2023/11/02 05:09:11;;;;;;;22.40;12.00;;;4.60;99.90;;;;;;4129718;28;20335;-63
2023/11/02 05:11:12;;;;;;;19.40;11.60;;;4.60;99.90;;;;;;4130680;28;20287;-64
2023/11/02 05:13:13;;;;;;;20.83;11.47;;;4.60;99.90;;;;;;4128912;28;20334;-62
2023/11/02 05:15:15;;;;;;;20.23;11.73;;;4.60;99.90;;;;;;4130456;28;20257;-63
2023/11/02 05:17:17;;;;;;;18.33;11.70;;;4.60;99.90;;;;;;4128856;28;20288;-63
2023/11/02 05:19:18;;;;;;;17.23;11.23;;;4.60;99.90;;;;;;4128921;28;20798;-61
2023/11/02 05:21:19;;;;;;;19.10;11.93;;;4.60;99.90;;;;;;4129659;28;20081;-62
2023/11/02 05:23:20;;;;;;;21.20;11.33;;;4.60;99.90;;;;;;4129014;28;20323;-61
2023/11/02 05:25:23;;;;;;;23.07;12.77;;;4.70;99.90;;;;;;4124206;28;20296;-61
2023/11/02 05:27:25;;;;;;;23.20;12.17;;;4.70;99.90;;;;;;4128154;28;20677;-62
2023/11/02 05:29:26;;;;;;;19.73;12.03;;;4.70;99.90;;;;;;4128642;28;20030;-61
2023/11/02 05:31:27;;;;;;;20.73;12.00;;;4.80;99.90;;;;;;4128587;28;20358;-61
2023/11/02 05:33:29;;;;;;;20.40;12.07;;;4.80;99.90;;;;;;4130414;28;20260;-62
2023/11/02 05:35:30;;;;;;;20.73;12.17;;;4.80;99.90;;;;;;4129525;28;20342;-59
2023/11/02 05:37:31;;;;;;;20.53;12.07;;;4.90;99.90;;;;;;4130245;28;20089;-61
2023/11/02 05:39:33;;;;;;;21.93;12.00;;;4.80;99.90;;;;;;4129740;28;20279;-61
2023/11/02 05:41:34;;;;;;;20.93;11.80;;;4.90;99.90;;;;;;4130052;28;20050;-60
2023/11/02 05:43:35;;;;;;;18.63;11.67;;;4.90;99.90;;;;;;4129641;28;20269;-61
2023/11/02 05:45:36;;;;;;;19.50;11.80;;;4.90;99.90;;;;;;4129973;28;20308;-61
2023/11/02 05:47:37;;;;;;;30.97;12.00;;;4.90;99.90;;;;;;4129325;28;20311;-62
2023/11/02 05:49:38;;;;;;;22.87;11.80;;;4.90;99.90;;;;;;4129380;28;20538;-61
2023/11/02 05:51:39;;;;;;;23.03;12.47;;;5.00;99.90;;;;;;4129334;28;20280;-61
2023/11/02 05:53:41;;;;;;;20.63;11.97;;;5.00;99.90;;;;;;4129026;28;20292;-62
2023/11/02 05:55:42;;;;;;;23.80;12.93;;;5.00;99.90;;;;;;4129204;28;20739;-62
2023/11/02 05:57:43;;;;;;;25.83;12.93;;;5.00;99.90;;;;;;4129543;28;20264;-62
2023/11/02 05:59:44;;;;;;;25.07;12.93;;;5.10;99.90;;;;;;4130389;28;20030;-62
2023/11/02 06:01:45;;;;;;;20.50;12.37;;;5.10;99.90;;;;;;4129276;28;20634;-61
2023/11/02 06:03:47;;;;;;;22.33;13.20;;;5.10;99.90;;;;;;4130047;28;20093;-61
2023/11/02 06:05:48;;;;;;;21.53;11.77;;;5.10;99.90;;;;;;4129466;28;20038;-61
2023/11/02 06:07:49;;;;;;;28.00;12.17;;;5.20;99.90;;;;;;4130155;28;20058;-60
2023/11/02 06:09:50;;;;;;;20.33;11.60;;;5.20;99.90;;;;;;4120308;28;20134;-60
2023/11/02 06:11:51;;;;;;;23.97;13.07;;;5.20;99.90;;;;;;4113132;28;20543;-56
2023/11/02 06:13:52;;;;;;;21.73;11.93;;;5.20;99.90;;;;;;4112679;28;20078;-61
2023/11/02 06:15:54;;;;;;;22.57;11.80;;;5.20;99.90;;;;;;4135865;28;20073;-62
2023/11/02 06:17:55;;;;;;;20.80;11.93;;;5.30;99.90;;;;;;4128518;28;20085;-60
2023/11/02 06:19:56;;;;;;;23.10;12.27;;;5.40;99.90;;;;;;4128742;28;20038;-61
2023/11/02 06:21:57;;;;;;;20.80;12.63;;;5.40;99.90;;;;;;4129339;28;20081;-57
2023/11/02 06:23:58;;;;;;;20.97;12.20;;;5.40;99.90;;;;;;4128526;28;20443;-59
2023/11/02 06:26:00;;;;;;;24.90;11.47;;;5.50;99.90;;;;;;4128483;28;20081;-62
2023/11/02 06:28:01;;;;;;;17.90;11.30;;;5.60;99.90;;;;;;4128527;28;20038;-63
2023/11/02 06:30:02;;;;;;;19.57;11.60;;;5.60;99.90;;;;;;4129558;28;20062;-60
2023/11/02 06:32:04;;;;;;;20.90;11.63;;;5.70;99.90;;;;;;4128576;28;20306;-58
2023/11/02 06:34:05;;;;;;;19.17;10.17;;;5.70;99.90;;;;;;4129444;28;20085;-60
2023/11/02 06:36:06;;;;;;;18.73;11.30;;;5.80;99.90;;;;;;4128938;28;20030;-61
2023/11/02 06:38:08;;;;;;;17.80;10.43;;;5.90;99.90;;;;;;4127886;28;20687;-60
2023/11/02 06:40:09;;;;;;;17.67;10.80;;;5.90;99.90;;;;;;4126941;28;20087;-57
2023/11/02 06:42:12;;;;;;;20.03;11.43;;;6.10;99.90;;;;;;4128802;28;20505;-60
2023/11/02 06:44:13;;;;;;;19.40;10.53;;;6.10;99.90;;;;;;4127776;28;20114;-60
2023/11/02 06:46:15;;;;;;;21.83;10.33;;;6.20;99.90;;;;;;4128682;28;20046;-61
2023/11/02 06:48:16;;;;;;;18.77;10.80;;;6.20;99.90;;;;;;4127970;28;20038;-61
2023/11/02 06:50:17;;;;;;;17.53;10.37;;;6.20;99.90;;;;;;4128435;28;20034;-61
2023/11/02 06:52:19;;;;;;;17.47;9.97;;;6.30;99.90;;;;;;4128718;28;20078;-61
2023/11/02 06:54:20;;;;;;;16.17;9.30;;;6.20;99.90;;;;;;4127716;28;20073;-61
2023/11/02 06:56:25;;;;;;;15.70;10.00;;;6.20;99.90;;;;;;4128140;28;20491;-60
2023/11/02 06:58:26;;;;;;;16.80;9.50;;;6.10;99.90;;;;;;4128302;28;20051;-62
2023/11/02 07:00:28;;;;;;;18.53;9.27;;;6.10;99.90;;;;;;4129043;28;20084;-61
2023/11/02 07:02:29;;;;;;;16.37;10.30;;;6.10;99.90;;;;;;4128117;28;20093;-61
2023/11/02 07:04:30;;;;;;;15.93;8.97;;;6.20;99.90;;;;;;4129491;28;20091;-59
2023/11/02 07:06:31;;;;;;;17.70;10.13;;;6.20;99.90;;;;;;4128267;28;20431;-61
2023/11/02 07:08:32;;;;;;;16.07;9.63;;;6.20;99.90;;;;;;4128660;28;20043;-60
2023/11/02 07:10:34;;;;;;;17.73;10.43;;;6.30;99.90;;;;;;4127120;28;20046;-61
2023/11/02 07:12:36;;;;;;;17.13;10.47;;;6.30;99.90;;;;;;4127004;28;20046;-61
2023/11/02 07:14:38;;;;;;;15.37;9.77;;;6.30;99.90;;;;;;4127554;28;21351;-61
2023/11/02 07:16:39;;;;;;;18.50;10.33;;;6.30;99.90;;;;;;4128473;28;20097;-60
2023/11/02 07:18:40;;;;;;;15.10;9.40;;;6.30;99.90;;;;;;4127754;28;20089;-59
2023/11/02 07:20:42;;;;;;;14.83;9.47;;;6.30;99.90;;;;;;4128364;28;20046;-60
2023/11/02 07:22:43;;;;;;;15.00;9.63;;;6.40;99.90;;;;;;4128284;28;20101;-60
2023/11/02 07:24:44;;;;;;;17.87;9.20;;;6.40;99.90;;;;;;4127449;28;20108;-61
2023/11/02 07:26:45;;;;;;;15.83;10.03;;;6.40;99.90;;;;;;4128605;28;20162;-60
2023/11/02 07:28:46;;;;;;;14.70;9.17;;;6.50;99.90;;;;;;4127775;28;20053;-60
2023/11/02 07:30:47;;;;;;;14.83;9.03;;;6.60;99.90;;;;;;4128278;28;20548;-57
2023/11/02 07:32:48;;;;;;;16.33;8.80;;;6.60;99.90;;;;;;4124770;28;20641;-61
2023/11/02 07:34:49;;;;;;;14.50;9.20;;;6.60;99.90;;;;;;4128057;28;20046;-61
2023/11/02 07:36:53;;;;;;;19.10;9.93;;;6.70;99.90;;;;;;4127847;28;20034;-60
2023/11/02 07:38:54;;;;;;;14.63;8.87;;;6.70;99.90;;;;;;4125286;28;20404;-61
2023/11/02 07:40:55;;;;;;;15.20;8.70;;;6.80;99.90;;;;;;4111173;28;20039;-62
2023/11/02 07:42:56;;;;;;;16.77;9.43;;;6.80;99.90;;;;;;4112402;28;20105;-62
2023/11/02 07:44:57;;;;;;;12.40;8.60;;;6.80;99.90;;;;;;4110985;28;20038;-61
2023/11/02 07:46:58;;;;;;;13.13;8.00;;;6.80;99.90;;;;;;4113438;28;20039;-61
2023/11/02 07:48:59;;;;;;;16.00;8.77;;;6.80;99.90;;;;;;4138661;28;20027;-61
2023/11/02 07:51:04;;;;;;;13.90;8.47;;;6.80;99.90;;;;;;4128173;28;20077;-60
2023/11/02 07:53:05;;;;;;;14.27;8.60;;;6.90;99.90;;;;;;4127591;28;20081;-60
2023/11/02 07:55:06;;;;;;;10.57;7.97;;;6.90;99.90;;;;;;4127840;28;20042;-61
2023/11/02 07:57:08;;;;;;;11.60;7.60;;;6.90;99.90;;;;;;4127858;28;20080;-60
2023/11/02 07:59:09;;;;;;;13.67;7.90;;;6.90;99.90;;;;;;4127756;28;20081;-62
2023/11/02 08:01:10;;;;;;;12.60;7.97;;;7.00;99.90;;;;;;4126302;28;20038;-60
2023/11/02 08:03:11;;;;;;;17.93;8.10;;;7.10;99.90;;;;;;4137793;28;20088;-61
2023/11/02 08:05:13;;;;;;;12.37;7.97;;;7.10;99.90;;;;;;4144456;28;20037;-62
2023/11/02 08:07:14;;;;;;;13.77;8.13;;;7.20;99.90;;;;;;4158710;28;20453;-62
2023/11/02 08:09:16;;;;;;;11.97;8.07;;;7.20;99.90;;;;;;4126686;28;20038;-62
2023/11/02 08:11:17;;;;;;;12.10;7.37;;;7.30;99.90;;;;;;4127391;28;20046;-63
2023/11/02 08:13:18;;;;;;;15.43;8.07;;;7.40;99.90;;;;;;4128525;28;20072;-61
2023/11/02 08:15:19;;;;;;;11.73;8.50;;;7.40;99.90;;;;;;4127286;28;20467;-61
2023/11/02 08:17:23;;;;;;;15.30;9.20;;;7.60;99.90;;;;;;4128287;28;20105;-60
2023/11/02 08:19:24;;;;;;;13.23;7.50;;;7.80;99.90;;;;;;4126820;28;20486;-60
2023/11/02 08:21:25;;;;;;;11.07;7.43;;;7.90;99.90;;;;;;4127552;28;20073;-60
2023/11/02 08:23:26;;;;;;;15.20;8.60;;;8.00;99.90;;;;;;4125865;28;20014;-63
2023/11/02 08:25:27;;;;;;;11.33;7.33;;;8.30;99.90;;;;;;4126538;28;20046;-61
2023/11/02 08:27:28;;;;;;;8.40;6.93;;;8.40;99.90;;;;;;4127539;28;20392;-59
2023/11/02 08:29:29;;;;;;;11.50;7.40;;;8.50;99.90;;;;;;4127191;28;20459;-61
2023/11/02 08:31:32;;;;;;;11.07;7.37;;;8.70;99.90;;;;;;4127581;28;20070;-62
2023/11/02 08:33:33;;;;;;;11.10;6.63;;;8.90;99.90;;;;;;4127004;28;20089;-60
2023/11/02 08:35:35;;;;;;;11.37;7.30;;;9.00;99.90;;;;;;4128224;28;20089;-62
2023/11/02 08:37:36;;;;;;;9.83;6.63;;;9.20;99.90;;;;;;4126413;28;20042;-60
2023/11/02 08:39:42;;;;;;;11.20;6.93;;;9.50;99.90;;;;;;4128234;28;20034;-62
2023/11/02 08:41:43;;;;;;;6.43;4.90;;;9.70;99.90;;;;;;4127564;28;20046;-60
2023/11/02 08:43:46;;;;;;;6.83;5.10;;;9.80;99.90;;;;;;4128286;28;20097;-61
2023/11/02 08:45:48;;;;;;;7.07;4.80;;;10.00;99.90;;;;;;4125214;28;20062;-60
2023/11/02 08:47:49;;;;;;;7.70;4.90;;;10.00;99.90;;;;;;4127797;28;20260;-61
2023/11/02 08:49:50;;;;;;;8.17;4.80;;;10.10;99.90;;;;;;4126531;28;20089;-60
2023/11/02 08:51:51;;;;;;;6.57;4.87;;;10.20;99.90;;;;;;4128280;28;20116;-62
2023/11/02 08:53:53;;;;;;;7.13;5.03;;;10.40;99.90;;;;;;4126906;28;20418;-60
2023/11/02 08:55:54;;;;;;;7.60;3.63;;;10.60;99.90;;;;;;4127660;28;20108;-61
2023/11/02 08:57:55;;;;;;;5.00;3.30;;;10.80;99.90;;;;;;4129140;28;20026;-61
2023/11/02 08:59:59;;;;;;;4.70;2.97;;;11.00;99.90;;;;;;4143031;28;20046;-57
2023/11/02 09:02:00;;;;;;;3.17;2.63;;;11.20;99.90;;;;;;4146353;28;20176;-62
2023/11/02 09:04:01;;;;;;;4.60;2.57;;;11.30;99.90;;;;;;4133629;28;20084;-60
2023/11/02 09:06:04;;;;;;;3.60;2.60;;;11.40;99.90;;;;;;4129701;28;21439;-61
2023/11/02 09:08:05;;;;;;;7.03;3.00;;;11.60;99.90;;;;;;4129426;28;20026;-61
2023/11/02 09:10:08;;;;;;;5.53;2.93;;;11.70;99.90;;;;;;4130807;28;20461;-62
2023/11/02 09:12:10;;;;;;;8.67;3.87;;;11.70;99.90;;;;;;4130192;28;20066;-60
2023/11/02 09:14:11;;;;;;;4.17;3.40;;;11.70;99.90;;;;;;4131080;28;20450;-61
2023/11/02 09:16:13;;;;;;;3.53;2.20;;;11.70;99.90;;;;;;4129289;28;20136;-59
2023/11/02 09:18:15;;;;;;;5.30;1.90;;;11.60;99.90;;;;;;4130927;28;20089;-61
2023/11/02 09:20:16;;;;;;;2.30;2.10;;;11.70;99.90;;;;;;4129791;28;20042;-60
2023/11/02 09:22:17;;;;;;;5.23;2.30;;;11.60;99.90;;;;;;4130426;28;20050;-60
2023/11/02 09:24:18;;;;;;;2.40;1.77;;;11.60;99.90;;;;;;4129285;28;20693;-60
2023/11/02 09:26:20;;;;;;;3.90;2.10;;;11.70;99.90;;;;;;4130238;28;20050;-61
2023/11/02 09:28:21;;;;;;;4.47;2.33;;;11.60;99.90;;;;;;4129533;28;20085;-61
2023/11/02 09:30:22;;;;;;;5.83;2.60;;;11.50;99.90;;;;;;4129746;28;20442;-61
2023/11/02 09:32:24;;;;;;;5.37;2.20;;;11.30;99.90;;;;;;4129729;28;20081;-61
2023/11/02 09:34:27;;;;;;;4.30;2.87;;;11.30;99.90;;;;;;4129251;28;20108;-60
2023/11/02 09:36:30;;;;;;;4.10;3.40;;;11.10;99.90;;;;;;4129970;28;20491;-61
2023/11/02 09:38:31;;;;;;;5.50;3.60;;;11.00;99.90;;;;;;4127648;28;20360;-59
2023/11/02 09:40:33;;;;;;;4.30;3.13;;;11.00;99.90;;;;;;4130179;28;20038;-61
2023/11/02 09:42:34;;;;;;;4.37;2.87;;;11.00;99.90;;;;;;4129328;28;20089;-59
2023/11/02 09:44:36;;;;;;;4.53;2.67;;;11.00;99.90;;;;;;4129121;28;20073;-61
2023/11/02 09:46:37;;;;;;;4.43;3.00;;;11.00;99.90;;;;;;4128392;28;20050;-62
2023/11/02 09:48:38;;;;;;;5.10;3.83;;;11.00;99.90;;;;;;4129859;28;20030;-60
2023/11/02 09:50:40;;;;;;;5.47;3.67;;;11.10;99.90;;;;;;4128555;28;20116;-60
2023/11/02 09:52:41;;;;;;;6.03;3.73;;;11.10;99.90;;;;;;4130000;28;20157;-60
2023/11/02 09:54:43;;;;;;;6.87;3.60;;;11.10;99.90;;;;;;4127347;28;20038;-61
2023/11/02 09:56:45;;;;;;;5.27;3.50;;;11.20;99.90;;;;;;4129995;28;20479;-62
2023/11/02 09:58:46;;;;;;;5.07;4.03;;;11.20;99.90;;;;;;4128855;28;20447;-60
2023/11/02 10:00:48;;;;;;;5.37;3.53;;;11.20;99.90;;;;;;4128988;28;20487;-61
2023/11/02 10:02:50;;;;;;;10.77;4.23;;;11.20;99.90;;;;;;4128841;28;20101;-61
2023/11/02 10:04:52;;;;;;;5.93;4.00;;;11.20;99.90;;;;;;4129294;28;20661;-61
2023/11/02 10:06:53;;;;;;;6.57;3.77;;;11.30;99.90;;;;;;4129053;28;20108;-60
2023/11/02 10:08:54;;;;;;;6.03;3.20;;;11.40;99.90;;;;;;4127887;28;20089;-61
2023/11/02 10:11:19;;;;;;;3.93;2.77;;;11.50;99.90;;;;;;4129337;28;20042;-62
2023/11/02 10:13:20;;;;;;;4.43;3.53;;;11.50;99.90;;;;;;4129384;28;20553;-61
2023/11/02 10:15:22;;;;;;;3.30;2.80;;;11.50;99.90;;;;;;4129086;28;20414;-61
2023/11/02 10:17:23;;;;;;;4.07;3.00;;;11.50;99.90;;;;;;4126969;28;20054;-60
2023/11/02 10:19:24;;;;;;;4.83;3.23;;;11.60;99.90;;;;;;4129575;28;20046;-62
2023/11/02 10:21:25;;;;;;;4.40;3.43;;;11.60;99.90;;;;;;4128813;28;20556;-61
2023/11/02 10:23:26;;;;;;;4.67;2.93;;;11.70;99.90;;;;;;4129499;28;20022;-61
2023/11/02 10:25:29;;;;;;;4.40;2.83;;;11.80;99.90;;;;;;4128223;28;20039;-59
2023/11/02 10:27:31;;;;;;;4.20;3.47;;;12.00;99.90;;;;;;4129438;28;20034;-61
2023/11/02 10:29:34;;;;;;;3.90;3.10;;;12.00;99.90;;;;;;4128104;28;20514;-56
2023/11/02 10:31:36;;;;;;;5.07;3.17;;;11.90;99.90;;;;;;4129157;28;20069;-60
2023/11/02 10:33:37;;;;;;;3.90;2.70;;;12.00;99.90;;;;;;4128152;28;20093;-60
2023/11/02 10:35:39;;;;;;;2.57;2.30;;;12.10;99.90;;;;;;4129172;28;20041;-59
2023/11/02 10:37:40;;;;;;;5.43;3.10;;;12.20;99.90;;;;;;4128247;28;20034;-61
2023/11/02 10:39:42;;;;;;;4.23;3.37;;;12.20;99.90;;;;;;4127160;28;20055;-61
2023/11/02 10:41:52;;;;;;;4.40;2.97;;;12.20;99.90;;;;;;4128519;28;20042;-59
2023/11/02 10:43:56;;;;;;;3.70;2.72;;;12.30;99.90;;;;;;4129210;28;20031;-61
2023/11/02 10:45:57;;;;;;;5.43;2.70;;;12.30;99.90;;;;;;4128205;28;20050;-60